createdAt,value
2023-04-08T00:00:08.830Z,47.85
2023-04-08T00:02:35.424Z,55.80
2023-04-08T00:05:02.142Z,64.97
2023-04-08T00:07:29.077Z,46.25
2023-04-08T00:09:55.604Z,33.00
2023-04-08T00:12:22.152Z,47.47
2023-04-08T00:14:48.676Z,53.67
2023-04-08T00:17:15.096Z,35.72
2023-04-08T00:19:41.513Z,49.60
2023-04-08T00:22:08.311Z,123.13
2023-04-08T00:24:34.787Z,103.78
2023-04-08T00:27:01.210Z,54.63
2023-04-08T00:29:27.623Z,74.68
2023-04-08T00:31:54.530Z,61.63
2023-04-08T00:34:21.102Z,140.82
2023-04-08T00:36:47.647Z,107.80
2023-04-08T00:39:14.606Z,78.05
2023-04-08T00:41:41.152Z,97.47
2023-04-08T00:44:07.803Z,53.45
2023-04-08T00:46:37.253Z,50.55
2023-04-08T00:49:04.398Z,67.07
2023-04-08T00:51:36.348Z,90.90
2023-04-08T00:54:04.912Z,81.95
2023-04-08T00:56:32.848Z,65.38
2023-04-08T00:59:00.661Z,51.92
2023-04-08T01:01:43.863Z,81.05
2023-04-08T01:04:27.490Z,54.17
2023-04-08T01:07:17.920Z,76.35
2023-04-08T01:09:56.343Z,85.50
2023-04-08T01:12:29.949Z,72.30
2023-04-08T01:15:05.891Z,73.05
2023-04-08T01:17:33.936Z,88.00
2023-04-08T01:20:02.760Z,128.32
2023-04-08T01:22:48.470Z,64.43
2023-04-08T01:25:29.960Z,107.65
2023-04-08T01:27:58.424Z,95.90
2023-04-08T01:30:26.079Z,45.25
2023-04-08T01:32:56.476Z,50.75
2023-04-08T01:35:23.968Z,73.47
2023-04-08T01:37:51.634Z,77.03
2023-04-08T01:40:19.849Z,130.70
2023-04-08T01:42:49.629Z,93.60
2023-04-08T01:45:16.884Z,69.18
2023-04-08T01:47:47.523Z,64.95
2023-04-08T01:50:15.616Z,46.22
2023-04-08T01:52:46.167Z,62.83
2023-04-08T01:55:12.741Z,71.85
2023-04-08T01:57:40.909Z,49.58
2023-04-08T02:00:14.336Z,32.97
2023-04-08T02:02:43.061Z,31.90
2023-04-08T02:05:09.826Z,51.28
2023-04-08T02:07:36.610Z,34.88
2023-04-08T02:10:03.750Z,43.08
2023-04-08T02:12:30.507Z,57.28
2023-04-08T02:14:57.856Z,70.50
2023-04-08T02:17:45.541Z,39.00
2023-04-08T02:20:31.072Z,52.67
2023-04-08T02:23:09.127Z,63.42
2023-04-08T02:25:38.869Z,33.00
2023-04-08T02:28:09.517Z,46.25
2023-04-08T02:30:37.266Z,54.72
2023-04-08T02:33:05.609Z,56.03
2023-04-08T02:35:32.797Z,39.08
2023-04-08T02:37:59.404Z,75.70
2023-04-08T02:40:30.277Z,89.93
2023-04-08T02:45:27.660Z,82.63
2023-04-08T02:47:54.224Z,60.05
2023-04-08T02:50:20.740Z,68.25
2023-04-08T02:52:47.197Z,44.25
2023-04-08T02:55:13.595Z,57.15
2023-04-08T02:57:41.983Z,36.95
2023-04-08T03:00:09.688Z,66.20
2023-04-08T03:02:36.543Z,65.95
2023-04-08T03:05:04.292Z,28.67
2023-04-08T03:07:30.975Z,43.05
2023-04-08T03:09:57.546Z,41.08
2023-04-08T03:12:24.020Z,28.83
2023-04-08T03:14:50.772Z,25.00
2023-04-08T03:17:17.231Z,43.42
2023-04-08T03:19:43.657Z,41.72
2023-04-08T03:22:10.204Z,33.35
2023-04-08T03:24:37.050Z,29.38
2023-04-08T03:27:03.800Z,36.33
2023-04-08T03:29:32.999Z,39.88
2023-04-08T03:31:59.647Z,86.80
2023-04-08T03:34:26.222Z,32.42
2023-04-08T03:36:52.699Z,44.55
2023-04-08T03:39:19.432Z,51.47
2023-04-08T03:41:45.834Z,46.88
2023-04-08T03:44:12.298Z,49.15
2023-04-08T03:46:38.718Z,40.70
2023-04-08T03:49:05.302Z,41.88
2023-04-08T03:51:31.927Z,90.43
2023-04-08T03:53:58.420Z,75.20
2023-04-08T03:56:25.595Z,58.47
2023-04-08T03:58:52.259Z,40.88
2023-04-08T04:01:18.885Z,54.00
2023-04-08T04:03:45.443Z,45.60
2023-04-08T04:06:12.144Z,41.65
2023-04-08T04:08:38.536Z,42.03
2023-04-08T04:11:04.972Z,57.40
2023-04-08T04:13:31.344Z,67.82
2023-04-08T04:15:58.004Z,58.47
2023-04-08T04:18:24.407Z,62.97
2023-04-08T04:20:50.956Z,23.83
2023-04-08T04:23:17.363Z,23.83
2023-04-08T04:25:44.399Z,24.65
2023-04-08T04:28:10.890Z,29.67
2023-04-08T04:30:40.545Z,31.63
2023-04-08T04:33:07.430Z,29.92
2023-04-08T04:35:34.199Z,27.80
2023-04-08T04:38:01.591Z,23.55
2023-04-08T04:40:28.082Z,22.23
2023-04-08T04:42:54.504Z,26.05
2023-04-08T04:45:20.955Z,23.67
2023-04-08T04:47:47.477Z,24.77
2023-04-08T04:50:13.884Z,24.90
2023-04-08T04:52:41.388Z,27.05
2023-04-08T04:55:08.230Z,29.05
2023-04-08T04:57:34.670Z,27.45
2023-04-08T05:00:02.273Z,36.78
2023-04-08T05:02:30.813Z,23.30
2023-04-08T05:04:57.380Z,24.33
2023-04-08T05:07:23.943Z,28.10
2023-04-08T05:09:50.712Z,28.60
2023-04-08T05:12:17.238Z,21.63
2023-04-08T05:14:43.699Z,30.98
2023-04-08T05:17:10.134Z,33.88
2023-04-08T05:19:36.533Z,39.80
2023-04-08T05:22:03.011Z,46.40
2023-04-08T05:24:29.419Z,49.28
2023-04-08T05:26:57.797Z,109.18
2023-04-08T05:29:24.268Z,38.28
2023-04-08T05:31:51.073Z,36.92
2023-04-08T05:34:22.793Z,36.38
2023-04-08T05:36:53.449Z,42.83
2023-04-08T05:39:20.372Z,45.97
2023-04-08T05:41:46.894Z,36.40
2023-04-08T05:44:14.105Z,21.65
2023-04-08T05:46:40.574Z,20.48
2023-04-08T05:49:07.100Z,21.55
2023-04-08T05:51:33.503Z,18.05
2023-04-08T05:53:59.863Z,18.85
2023-04-08T05:56:26.500Z,21.42
2023-04-08T05:58:52.952Z,21.13
2023-04-08T06:01:19.387Z,17.95
2023-04-08T06:03:46.087Z,19.98
2023-04-08T06:06:12.678Z,19.52
2023-04-08T06:08:39.161Z,19.77
2023-04-08T06:11:05.720Z,18.13
2023-04-08T06:13:32.387Z,19.20
2023-04-08T06:15:59.614Z,18.02
2023-04-08T06:18:26.143Z,16.60
2023-04-08T06:20:52.550Z,16.15
2023-04-08T06:23:18.981Z,15.68
2023-04-08T06:25:45.412Z,17.15
2023-04-08T06:28:11.813Z,17.50
2023-04-08T06:30:38.261Z,17.65
2023-04-08T06:33:04.767Z,16.63
2023-04-08T06:35:32.627Z,16.38
2023-04-08T06:37:59.193Z,18.73
2023-04-08T06:40:25.807Z,18.23
2023-04-08T06:42:52.289Z,17.17
2023-04-08T06:45:18.661Z,17.40
2023-04-08T06:47:45.357Z,16.55
2023-04-08T06:50:11.991Z,18.60
2023-04-08T06:52:38.659Z,15.82
2023-04-08T06:55:05.668Z,17.58
2023-04-08T06:57:32.096Z,17.95
2023-04-08T07:00:00.544Z,17.75
2023-04-08T07:02:27.198Z,19.17
2023-04-08T07:04:53.689Z,17.20
2023-04-08T07:07:20.225Z,17.75
2023-04-08T07:09:46.840Z,17.27
2023-04-08T07:12:13.500Z,16.38
2023-04-08T07:14:39.967Z,17.40
2023-04-08T07:17:06.746Z,15.40
2023-04-08T07:19:33.593Z,16.20
2023-04-08T07:22:01.010Z,17.00
2023-04-08T07:24:27.516Z,15.35
2023-04-08T07:26:56.739Z,18.02
2023-04-08T07:29:23.207Z,17.05
2023-04-08T07:31:49.569Z,16.75
2023-04-08T07:34:16.606Z,17.58
2023-04-08T07:36:43.234Z,16.70
2023-04-08T07:39:09.663Z,15.38
2023-04-08T07:41:36.558Z,16.60
2023-04-08T07:44:02.997Z,16.75
2023-04-08T07:46:29.537Z,16.23
2023-04-08T07:48:55.951Z,17.52
2023-04-08T07:51:22.479Z,15.52
2023-04-08T07:53:49.003Z,14.85
2023-04-08T07:56:16.328Z,15.68
2023-04-08T07:58:43.154Z,15.15
2023-04-08T08:01:16.589Z,15.27
2023-04-08T08:03:43.068Z,14.85
2023-04-08T08:06:11.749Z,16.15
2023-04-08T08:08:38.205Z,15.32
2023-04-08T08:11:04.689Z,14.18
2023-04-08T08:13:31.303Z,14.18
2023-04-08T08:15:57.856Z,15.40
2023-04-08T08:18:24.417Z,14.35
2023-04-08T08:20:50.882Z,15.05
2023-04-08T08:23:17.278Z,14.77
2023-04-08T08:25:43.895Z,14.45
2023-04-08T08:28:10.476Z,16.10
2023-04-08T08:30:38.369Z,13.70
2023-04-08T08:33:04.790Z,15.32
2023-04-08T08:35:31.431Z,13.20
2023-04-08T08:37:57.911Z,13.85
2023-04-08T08:40:24.328Z,15.30
2023-04-08T08:42:52.404Z,15.10
2023-04-08T08:45:22.024Z,16.60
2023-04-08T08:47:50.835Z,16.05
2023-04-08T08:50:18.021Z,14.63
2023-04-08T08:52:51.521Z,17.35
2023-04-08T08:55:41.296Z,16.65
2023-04-08T08:58:08.450Z,17.38
2023-04-08T09:00:39.287Z,14.73
2023-04-08T09:03:28.893Z,15.98
2023-04-08T09:05:57.698Z,16.02
2023-04-08T09:08:31.988Z,23.40
2023-04-08T09:11:17.785Z,15.30
2023-04-08T09:13:46.286Z,14.55
2023-04-08T09:16:16.628Z,14.07
2023-04-08T09:18:44.974Z,14.43
2023-04-08T09:21:12.691Z,15.32
2023-04-08T09:23:46.477Z,18.10
2023-04-08T09:26:14.039Z,15.25
2023-04-08T09:28:42.105Z,17.23
2023-04-08T09:31:19.577Z,15.25
2023-04-08T09:33:47.451Z,15.52
2023-04-08T09:36:15.518Z,15.70
2023-04-08T09:38:42.658Z,16.17
2023-04-08T09:41:12.998Z,18.67
2023-04-08T09:43:50.681Z,16.33
2023-04-08T09:46:24.523Z,17.63
2023-04-08T09:49:01.209Z,17.15
2023-04-08T09:51:33.172Z,15.18
2023-04-08T09:54:02.660Z,17.15
2023-04-08T09:56:41.679Z,16.33
2023-04-08T09:59:14.906Z,16.48
2023-04-08T10:01:46.379Z,15.98
2023-04-08T10:04:17.331Z,15.95
2023-04-08T10:06:43.890Z,18.60
2023-04-08T10:09:10.753Z,18.73
2023-04-08T10:11:37.404Z,14.70
2023-04-08T10:14:04.072Z,17.63
2023-04-08T10:16:31.137Z,15.65
2023-04-08T10:18:58.113Z,14.30
2023-04-08T10:21:48.082Z,16.02
2023-04-08T10:24:14.525Z,15.00
2023-04-08T10:26:42.928Z,14.73
2023-04-08T10:29:32.896Z,15.15
2023-04-08T10:31:59.698Z,13.15
2023-04-08T10:34:27.586Z,13.48
2023-04-08T10:36:56.650Z,14.15
2023-04-08T10:39:23.217Z,15.05
2023-04-08T10:41:50.946Z,14.25
2023-04-08T10:44:18.173Z,13.90
2023-04-08T10:46:46.766Z,14.35
2023-04-08T10:49:14.144Z,12.55
2023-04-08T10:51:41.625Z,13.88
2023-04-08T10:54:09.795Z,14.20
2023-04-08T10:56:43.680Z,15.23
2023-04-08T10:59:11.090Z,13.55
2023-04-08T11:01:41.903Z,13.20
2023-04-08T11:04:15.958Z,13.35
2023-04-08T11:06:44.008Z,14.07
2023-04-08T11:09:10.976Z,13.20
2023-04-08T11:11:37.937Z,13.80
2023-04-08T11:14:05.660Z,13.88
2023-04-08T11:16:32.656Z,13.13
2023-04-08T11:18:59.686Z,13.02
2023-04-08T11:21:29.555Z,13.68
2023-04-08T11:23:56.402Z,15.20
2023-04-08T11:26:23.521Z,13.63
2023-04-08T11:28:51.641Z,15.07
2023-04-08T11:31:20.640Z,15.88
2023-04-08T11:33:50.252Z,13.02
2023-04-08T11:36:21.593Z,11.07
2023-04-08T11:38:48.233Z,13.90
2023-04-08T11:41:14.904Z,12.23
2023-04-08T11:43:54.704Z,15.02
2023-04-08T11:46:21.484Z,12.18
2023-04-08T11:49:08.618Z,11.43
2023-04-08T11:51:53.494Z,12.55
2023-04-08T11:54:27.704Z,11.65
2023-04-08T11:56:54.261Z,13.10
2023-04-08T11:59:20.618Z,11.77
2023-04-08T12:01:47.225Z,12.13
2023-04-08T12:04:13.846Z,12.20
2023-04-08T12:06:43.424Z,11.77
2023-04-08T12:09:10.049Z,10.57
2023-04-08T12:11:36.718Z,11.70
2023-04-08T12:14:03.174Z,12.23
2023-04-08T12:16:29.799Z,10.38
2023-04-08T12:18:56.300Z,12.35
2023-04-08T12:21:22.837Z,11.35
2023-04-08T12:23:49.539Z,12.57
2023-04-08T12:26:16.180Z,10.27
2023-04-08T12:28:42.726Z,9.93
2023-04-08T12:31:09.181Z,10.82
2023-04-08T12:33:36.699Z,11.55
2023-04-08T12:36:03.507Z,12.45
2023-04-08T12:38:29.939Z,10.07
2023-04-08T12:40:56.470Z,11.88
2023-04-08T12:43:23.811Z,10.80
2023-04-08T12:45:50.800Z,10.30
2023-04-08T12:48:17.321Z,10.75
2023-04-08T12:50:44.064Z,10.68
2023-04-08T12:53:11.111Z,10.23
2023-04-08T12:55:37.654Z,12.38
2023-04-08T12:58:05.522Z,12.10
2023-04-08T13:00:32.351Z,10.70
2023-04-08T13:02:58.976Z,9.98
2023-04-08T13:05:33.156Z,11.90
2023-04-08T13:08:09.753Z,9.93
2023-04-08T13:10:36.339Z,10.38
2023-04-08T13:13:02.772Z,9.45
2023-04-08T13:15:29.141Z,11.90
2023-04-08T13:17:56.085Z,11.43
2023-04-08T13:20:25.881Z,11.18
2023-04-08T13:22:55.599Z,10.63
2023-04-08T13:25:22.235Z,13.07
2023-04-08T13:27:48.713Z,12.25
2023-04-08T13:30:15.534Z,12.35
2023-04-08T13:32:42.187Z,12.45
2023-04-08T13:35:09.246Z,11.90
2023-04-08T13:37:36.091Z,13.43
2023-04-08T13:40:03.498Z,11.93
2023-04-08T13:42:33.122Z,11.48
2023-04-08T13:44:59.957Z,12.93
2023-04-08T13:47:27.200Z,12.85
2023-04-08T13:49:54.015Z,11.07
2023-04-08T13:52:20.545Z,12.20
2023-04-08T13:54:47.045Z,10.73
2023-04-08T13:57:13.663Z,10.77
2023-04-08T13:59:40.933Z,11.00
2023-04-08T14:02:08.621Z,12.57
2023-04-08T14:04:35.262Z,10.80
2023-04-08T14:07:01.847Z,9.68
2023-04-08T14:09:28.281Z,9.73
2023-04-08T14:11:54.691Z,10.15
2023-04-08T14:14:21.208Z,10.90
2023-04-08T14:16:48.314Z,11.27
2023-04-08T14:19:14.803Z,10.48
2023-04-08T14:21:41.388Z,10.50
2023-04-08T14:24:07.936Z,10.63
2023-04-08T14:26:36.046Z,11.77
2023-04-08T14:29:04.682Z,11.40
2023-04-08T14:31:32.423Z,11.30
2023-04-08T14:33:59.688Z,9.48
2023-04-08T14:36:39.081Z,9.97
2023-04-08T14:39:05.748Z,10.73
2023-04-08T14:41:32.261Z,11.00
2023-04-08T14:43:58.765Z,9.98
2023-04-08T14:46:28.893Z,9.82
2023-04-08T14:48:55.852Z,9.43
2023-04-08T14:51:22.272Z,7.90
2023-04-08T14:53:48.812Z,9.13
2023-04-08T14:56:15.422Z,8.93
2023-04-08T14:58:41.876Z,9.45
2023-04-08T15:01:08.322Z,10.68
2023-04-08T15:03:34.937Z,10.68
2023-04-08T15:06:01.876Z,11.27
2023-04-08T15:08:28.763Z,10.20
2023-04-08T15:10:55.578Z,9.60
2023-04-08T15:13:22.972Z,10.65
2023-04-08T15:15:49.610Z,11.63
2023-04-08T15:18:16.258Z,11.63
2023-04-08T15:20:42.757Z,10.02
2023-04-08T15:23:09.272Z,10.05
2023-04-08T15:25:35.836Z,10.13
2023-04-08T15:28:02.708Z,11.15
2023-04-08T15:30:34.972Z,11.73
2023-04-08T15:33:04.893Z,10.65
2023-04-08T15:35:32.833Z,10.10
2023-04-08T15:38:00.450Z,11.02
2023-04-08T15:40:27.103Z,10.77
2023-04-08T15:42:53.709Z,10.95
2023-04-08T15:45:20.637Z,13.18
2023-04-08T15:47:47.094Z,11.15
2023-04-08T15:50:14.872Z,12.32
2023-04-08T15:52:41.847Z,11.75
2023-04-08T15:55:08.642Z,10.82
2023-04-08T15:57:36.542Z,11.35
2023-04-08T16:00:10.722Z,10.32
2023-04-08T16:02:37.624Z,10.55
2023-04-08T16:05:04.470Z,10.40
2023-04-08T16:07:31.229Z,11.52
2023-04-08T16:09:58.994Z,10.85
2023-04-08T16:12:25.792Z,10.18
2023-04-08T16:14:52.407Z,12.73
2023-04-08T16:17:18.896Z,11.40
2023-04-08T16:19:45.322Z,11.68
2023-04-08T16:22:11.758Z,13.50
2023-04-08T16:24:38.240Z,12.68
2023-04-08T16:27:05.477Z,13.82
2023-04-08T16:29:32.593Z,13.57
2023-04-08T16:31:59.065Z,13.77
2023-04-08T16:34:25.441Z,12.65
2023-04-08T16:36:51.949Z,14.40
2023-04-08T16:39:18.368Z,13.57
2023-04-08T16:41:45.101Z,12.30
2023-04-08T16:44:11.639Z,13.80
2023-04-08T16:46:38.371Z,12.90
2023-04-08T16:49:04.859Z,14.45
2023-04-08T16:51:31.308Z,14.23
2023-04-08T16:53:59.194Z,15.00
2023-04-08T16:56:27.003Z,15.57
2023-04-08T16:58:53.431Z,15.32
2023-04-08T17:01:20.466Z,16.70
2023-04-08T17:03:48.677Z,16.75
2023-04-08T17:06:15.310Z,17.45
2023-04-08T17:08:44.792Z,18.17
2023-04-08T17:11:14.750Z,17.80
2023-04-08T17:13:42.905Z,16.73
2023-04-08T17:16:14.993Z,18.52
2023-04-08T17:18:42.252Z,18.23
2023-04-08T17:21:08.811Z,19.33
2023-04-08T17:23:35.344Z,20.13
2023-04-08T17:26:09.283Z,17.90
2023-04-08T17:28:36.357Z,19.02
2023-04-08T17:31:02.988Z,20.23
2023-04-08T17:33:29.574Z,19.33
2023-04-08T17:35:56.149Z,18.40
2023-04-08T17:38:22.753Z,18.20
2023-04-08T17:40:49.281Z,17.65
2023-04-08T17:43:15.868Z,18.33
2023-04-08T17:45:42.399Z,20.48
2023-04-08T17:48:09.842Z,18.33
2023-04-08T17:50:36.685Z,16.33
2023-04-08T17:53:03.237Z,19.95
2023-04-08T17:55:29.747Z,19.30
2023-04-08T17:57:56.254Z,20.98
2023-04-08T18:00:22.932Z,19.27
2023-04-08T18:02:50.367Z,21.40
2023-04-08T18:05:16.906Z,22.60
2023-04-08T18:07:43.431Z,19.00
2023-04-08T18:10:10.061Z,18.83
2023-04-08T18:12:37.113Z,20.95
2023-04-08T18:15:03.738Z,18.70
2023-04-08T18:17:30.361Z,20.70
2023-04-08T18:19:58.352Z,21.33
2023-04-08T18:22:24.816Z,20.38
2023-04-08T18:24:51.266Z,21.40
2023-04-08T18:27:17.712Z,18.77
2023-04-08T18:29:44.119Z,22.20
2023-04-08T18:32:10.595Z,20.77
2023-04-08T18:34:37.157Z,21.58
2023-04-08T18:37:04.066Z,22.33
2023-04-08T18:39:30.643Z,23.48
2023-04-08T18:41:57.292Z,21.50
2023-04-08T18:44:23.780Z,23.08
2023-04-08T18:46:50.266Z,21.77
2023-04-08T18:49:16.725Z,22.05
2023-04-08T18:51:58.927Z,21.55
2023-04-08T18:54:28.167Z,21.35
2023-04-08T18:56:54.657Z,22.48
2023-04-08T18:59:21.084Z,23.40
2023-04-08T19:01:48.641Z,21.92
2023-04-08T19:04:15.316Z,22.17
2023-04-08T19:06:42.646Z,24.60
2023-04-08T19:09:09.169Z,25.20
2023-04-08T19:11:35.709Z,23.95
2023-04-08T19:14:02.187Z,24.63
2023-04-08T19:16:28.649Z,22.38
2023-04-08T19:18:55.120Z,23.58
2023-04-08T19:21:22.029Z,23.05
2023-04-08T19:23:49.239Z,23.70
2023-04-08T19:26:16.246Z,22.08
2023-04-08T19:28:42.792Z,24.20
2023-04-08T19:31:20.232Z,23.58
2023-04-08T19:33:47.014Z,24.83
2023-04-08T19:36:13.570Z,22.33
2023-04-08T19:38:40.250Z,24.17
2023-04-08T19:41:06.944Z,21.65
2023-04-08T19:43:33.462Z,23.40
2023-04-08T19:45:59.943Z,21.75
2023-04-08T19:48:26.735Z,21.20
2023-04-08T19:50:53.154Z,21.02
2023-04-08T19:53:19.718Z,20.58
2023-04-08T19:55:46.247Z,19.77
2023-04-08T19:58:12.859Z,23.85
2023-04-08T20:00:40.083Z,19.45
2023-04-08T20:03:07.785Z,20.88
2023-04-08T20:05:34.633Z,21.70
2023-04-08T20:08:01.070Z,20.92
2023-04-08T20:10:27.543Z,20.35
2023-04-08T20:12:54.248Z,18.77
2023-04-08T20:15:25.211Z,21.67
2023-04-08T20:17:53.113Z,21.13
2023-04-08T20:20:19.937Z,20.95
2023-04-08T20:22:46.614Z,21.05
2023-04-08T20:25:13.315Z,22.02
2023-04-08T20:27:39.774Z,20.65
2023-04-08T20:30:07.097Z,21.63
2023-04-08T20:32:34.698Z,20.98
2023-04-08T20:35:01.479Z,21.73
2023-04-08T20:37:28.701Z,21.42
2023-04-08T20:39:55.156Z,22.67
2023-04-08T20:42:21.689Z,21.67
2023-04-08T20:44:48.096Z,22.67
2023-04-08T20:47:14.584Z,20.83
2023-04-08T20:49:42.129Z,20.52
2023-04-08T20:52:08.571Z,22.25
2023-04-08T20:54:34.998Z,22.30
2023-04-08T20:57:01.593Z,21.50
2023-04-08T20:59:28.170Z,20.27
2023-04-08T21:01:54.699Z,20.92
2023-04-08T21:04:22.379Z,22.63
2023-04-08T21:06:48.995Z,21.98
2023-04-08T21:09:15.762Z,22.52
2023-04-08T21:11:42.370Z,22.60
2023-04-08T21:14:08.802Z,20.90
2023-04-08T21:16:35.343Z,21.20
2023-04-08T21:19:01.992Z,23.00
2023-04-08T21:21:28.536Z,20.42
2023-04-08T21:23:55.018Z,22.17
2023-04-08T21:26:22.138Z,26.00
2023-04-08T21:28:49.915Z,20.27
2023-04-08T21:31:16.640Z,24.70
2023-04-08T21:33:43.067Z,22.17
2023-04-08T21:36:09.724Z,23.38
2023-04-08T21:38:36.213Z,22.02
2023-04-08T21:41:02.781Z,21.75
2023-04-08T21:43:29.363Z,21.65
2023-04-08T21:45:55.880Z,22.77
2023-04-08T21:48:23.369Z,22.48
2023-04-08T21:50:49.824Z,24.15
2023-04-08T21:53:16.691Z,23.38
2023-04-08T21:55:43.136Z,23.33
2023-04-08T21:58:12.164Z,25.08
2023-04-08T22:00:39.039Z,20.98
2023-04-08T22:03:06.924Z,23.90
2023-04-08T22:05:33.555Z,24.20
2023-04-08T22:08:01.140Z,22.60
2023-04-08T22:10:27.704Z,22.30
2023-04-08T22:12:54.164Z,26.38
2023-04-08T22:15:20.775Z,25.00
2023-04-08T22:17:47.198Z,26.42
2023-04-08T22:20:13.697Z,30.63
2023-04-08T22:22:40.106Z,27.23
2023-04-08T22:25:07.145Z,30.23
2023-04-08T22:27:33.671Z,32.55
2023-04-08T22:30:00.222Z,30.13
2023-04-08T22:32:26.712Z,29.65
2023-04-08T22:34:53.171Z,30.95
2023-04-08T22:37:19.665Z,33.92
2023-04-08T22:39:46.164Z,34.35
2023-04-08T22:42:12.615Z,35.58
2023-04-08T22:44:39.172Z,35.35
2023-04-08T22:47:05.595Z,33.72
2023-04-08T22:49:31.964Z,36.63
2023-04-08T22:51:58.362Z,30.73
2023-04-08T22:54:24.841Z,35.53
2023-04-08T22:56:51.345Z,32.03
2023-04-08T22:59:17.769Z,33.63
2023-04-08T23:01:45.120Z,33.50
2023-04-08T23:04:11.586Z,37.63
2023-04-08T23:06:38.018Z,38.72
2023-04-08T23:09:04.507Z,36.03
2023-04-08T23:11:30.955Z,35.20
2023-04-08T23:13:57.385Z,33.80
2023-04-08T23:16:23.817Z,34.42
2023-04-08T23:18:50.519Z,33.55
2023-04-08T23:21:17.170Z,38.10
2023-04-08T23:23:43.585Z,34.63
2023-04-08T23:26:21.263Z,35.25
2023-04-08T23:28:47.874Z,36.72
2023-04-08T23:31:14.280Z,36.70
2023-04-08T23:33:40.935Z,39.38
2023-04-08T23:36:09.657Z,41.03
2023-04-08T23:38:37.095Z,37.08
2023-04-08T23:41:04.599Z,40.47
2023-04-08T23:43:31.125Z,38.80
2023-04-08T23:45:57.710Z,38.58
2023-04-08T23:48:24.300Z,38.15
2023-04-08T23:50:55.009Z,37.55
2023-04-08T23:53:21.920Z,32.80
2023-04-08T23:55:48.608Z,32.72
2023-04-08T23:58:15.563Z,33.00
